createdAt,value
2018-02-16T00:00:03.279Z,69.66
2018-02-16T00:02:32.342Z,69.62
2018-02-16T00:05:00.612Z,69.45
2018-02-16T00:07:28.905Z,69.87
2018-02-16T00:09:57.185Z,69.97
2018-02-16T00:12:25.473Z,69.77
2018-02-16T00:14:54.503Z,69.78
2018-02-16T00:17:22.786Z,69.59
2018-02-16T00:19:51.078Z,69.93
2018-02-16T00:22:19.365Z,69.81
2018-02-16T00:24:47.633Z,69.61
2018-02-16T00:27:15.916Z,69.45
2018-02-16T00:29:44.188Z,69.61
2018-02-16T00:32:12.486Z,69.26
2018-02-16T00:34:40.752Z,69.11
2018-02-16T00:37:09.787Z,68.97
2018-02-16T00:39:38.063Z,69.78
2018-02-16T00:42:06.339Z,69.21
2018-02-16T00:44:34.603Z,68.88
2018-02-16T00:47:02.873Z,68.52
2018-02-16T00:49:31.153Z,68.56
2018-02-16T00:51:59.416Z,69.16
2018-02-16T00:54:27.697Z,69.87
2018-02-16T00:56:56.012Z,70.11
2018-02-16T00:59:24.307Z,69.96
2018-02-16T01:01:52.581Z,69.54
2018-02-16T01:04:20.861Z,69.26
2018-02-16T01:06:49.116Z,68.73
2018-02-16T01:09:18.164Z,68.31
2018-02-16T01:11:46.429Z,68.03
2018-02-16T01:14:15.606Z,67.62
2018-02-16T01:16:43.878Z,67.66
2018-02-16T01:19:12.149Z,67.83
2018-02-16T01:21:40.416Z,67.49
2018-02-16T01:24:08.692Z,67.53
2018-02-16T01:26:36.962Z,67.48
2018-02-16T01:29:05.999Z,67.28
2018-02-16T01:31:34.268Z,67.58
2018-02-16T01:34:02.539Z,67.39
2018-02-16T01:36:31.573Z,67.38
2018-02-16T01:38:59.865Z,67.50
2018-02-16T01:41:28.149Z,67.54
2018-02-16T01:43:56.448Z,67.67
2018-02-16T01:46:24.735Z,67.55
2018-02-16T01:48:53.058Z,67.47
2018-02-16T01:51:21.321Z,67.30
2018-02-16T01:53:49.604Z,67.36
2018-02-16T01:56:17.878Z,67.31
2018-02-16T01:58:46.176Z,67.99
2018-02-16T02:01:14.445Z,68.36
2018-02-16T02:03:43.510Z,68.13
2018-02-16T02:06:11.788Z,68.12
2018-02-16T02:08:40.084Z,68.32
2018-02-16T02:11:08.355Z,68.74
2018-02-16T02:13:36.650Z,69.15
2018-02-16T02:16:04.924Z,69.54
2018-02-16T02:18:36.144Z,69.17
2018-02-16T02:21:05.193Z,69.11
2018-02-16T02:23:33.470Z,68.65
2018-02-16T02:26:01.756Z,68.33
2018-02-16T02:28:30.048Z,68.00
2018-02-16T02:30:58.326Z,67.63
2018-02-16T02:33:26.610Z,67.36
2018-02-16T02:35:54.889Z,67.11
2018-02-16T02:38:23.174Z,68.30
2018-02-16T02:40:52.199Z,68.03
2018-02-16T02:43:20.497Z,67.65
2018-02-16T02:45:48.773Z,67.32
2018-02-16T02:48:17.040Z,66.97
2018-02-16T02:50:46.068Z,66.58
2018-02-16T02:53:14.936Z,66.37
2018-02-16T02:55:43.202Z,66.05
2018-02-16T02:58:11.484Z,65.67
2018-02-16T03:00:39.765Z,65.44
2018-02-16T03:03:08.032Z,65.63
2018-02-16T03:05:36.299Z,65.67
2018-02-16T03:08:04.571Z,66.32
2018-02-16T03:10:33.605Z,66.78
2018-02-16T03:13:01.880Z,69.70
2018-02-16T03:15:30.165Z,69.63
2018-02-16T03:17:59.196Z,69.17
2018-02-16T03:20:28.236Z,68.64
2018-02-16T03:22:56.521Z,68.09
2018-02-16T03:25:24.794Z,67.56
2018-02-16T03:27:53.056Z,67.69
2018-02-16T03:30:21.333Z,68.26
2018-02-16T03:32:49.610Z,68.26
2018-02-16T03:35:18.636Z,68.04
2018-02-16T03:37:46.908Z,69.46
2018-02-16T03:40:15.956Z,71.23
2018-02-16T03:42:44.233Z,71.97
2018-02-16T03:45:12.500Z,72.22
2018-02-16T03:47:40.784Z,71.56
2018-02-16T03:50:09.828Z,71.18
2018-02-16T03:52:38.110Z,70.34
2018-02-16T03:55:06.392Z,71.56
2018-02-16T03:57:34.657Z,72.25
2018-02-16T04:00:03.693Z,73.54
2018-02-16T04:02:31.964Z,73.26
2018-02-16T04:05:00.273Z,73.25
2018-02-16T04:07:28.537Z,73.63
2018-02-16T04:09:56.815Z,76.37
2018-02-16T04:12:25.848Z,75.73
2018-02-16T04:14:54.133Z,75.19
2018-02-16T04:17:22.440Z,76.59
2018-02-16T04:19:50.722Z,76.21
2018-02-16T04:22:19.766Z,75.51
2018-02-16T04:24:48.053Z,75.55
2018-02-16T04:27:16.319Z,75.02
2018-02-16T04:29:44.592Z,75.11
2018-02-16T04:32:13.424Z,73.63
2018-02-16T04:34:41.700Z,74.44
2018-02-16T04:37:10.003Z,74.77
2018-02-16T04:39:38.282Z,76.10
2018-02-16T04:42:06.552Z,75.21
2018-02-16T04:44:34.828Z,74.26
2018-02-16T04:47:03.098Z,75.80
2018-02-16T04:49:32.141Z,75.24
2018-02-16T04:52:00.428Z,75.17
2018-02-16T04:54:28.723Z,74.11
2018-02-16T04:56:56.988Z,74.05
2018-02-16T04:59:25.264Z,74.12
2018-02-16T05:01:53.541Z,74.21
2018-02-16T05:04:21.812Z,74.17
2018-02-16T05:06:50.854Z,74.32
2018-02-16T05:09:19.900Z,74.05
2018-02-16T05:11:48.200Z,74.13
2018-02-16T05:14:16.463Z,73.97
2018-02-16T05:16:44.724Z,74.04
2018-02-16T05:19:13.028Z,73.42
2018-02-16T05:21:41.306Z,74.32
2018-02-16T05:24:09.583Z,75.56
2018-02-16T05:26:37.851Z,75.89
2018-02-16T05:29:06.901Z,75.64
2018-02-16T05:31:38.458Z,75.47
2018-02-16T05:34:06.741Z,75.06
2018-02-16T05:36:35.004Z,75.57
2018-02-16T05:39:04.058Z,76.82
2018-02-16T05:41:32.319Z,76.50
2018-02-16T05:44:00.586Z,77.26
2018-02-16T05:46:29.629Z,76.47
2018-02-16T05:48:57.914Z,77.03
2018-02-16T05:51:26.189Z,77.23
2018-02-16T05:53:54.465Z,78.04
2018-02-16T05:56:22.740Z,77.89
2018-02-16T05:58:51.805Z,78.04
2018-02-16T06:01:20.080Z,78.15
2018-02-16T06:03:48.380Z,77.72
2018-02-16T06:06:16.647Z,77.63
2018-02-16T06:08:44.927Z,77.34
2018-02-16T06:11:13.225Z,77.77
2018-02-16T06:13:41.503Z,78.87
2018-02-16T06:16:09.792Z,79.10
2018-02-16T06:18:38.059Z,80.00
2018-02-16T06:21:07.107Z,81.06
2018-02-16T06:23:35.384Z,81.79
2018-02-16T06:26:03.668Z,83.05
2018-02-16T06:28:31.953Z,82.11
2018-02-16T06:31:00.309Z,81.34
2018-02-16T06:33:28.539Z,81.84
2018-02-16T06:35:56.832Z,83.11
2018-02-16T06:38:25.891Z,83.84
2018-02-16T06:40:54.185Z,80.97
2018-02-16T06:43:23.223Z,80.44
2018-02-16T06:45:51.501Z,81.76
2018-02-16T06:48:19.790Z,81.65
2018-02-16T06:50:48.080Z,80.45
2018-02-16T06:53:16.370Z,80.04
2018-02-16T06:55:44.655Z,80.41
2018-02-16T06:58:12.932Z,80.74
2018-02-16T07:00:41.992Z,78.79
2018-02-16T07:03:10.264Z,78.61
2018-02-16T07:05:38.554Z,78.28
2018-02-16T07:08:06.833Z,78.76
2018-02-16T07:10:35.825Z,80.49
2018-02-16T07:13:04.138Z,80.14
2018-02-16T07:15:32.416Z,80.74
2018-02-16T07:18:00.693Z,80.46
2018-02-16T07:20:29.424Z,79.73
2018-02-16T07:22:57.696Z,81.35
2018-02-16T07:25:25.980Z,81.03
2018-02-16T07:27:54.267Z,78.82
2018-02-16T07:30:22.541Z,78.55
2018-02-16T07:32:50.817Z,78.42
2018-02-16T07:35:19.873Z,77.41
2018-02-16T07:37:48.142Z,77.76
2018-02-16T07:40:16.456Z,77.28
2018-02-16T07:42:44.727Z,77.02
2018-02-16T07:45:13.009Z,76.43
2018-02-16T07:47:41.288Z,76.79
2018-02-16T07:50:39.603Z,76.56
2018-02-16T07:53:07.879Z,76.92
2018-02-16T07:55:36.165Z,77.46
2018-02-16T07:58:04.431Z,77.12
2018-02-16T08:00:33.476Z,77.10
2018-02-16T08:03:01.776Z,78.19
2018-02-16T08:05:30.944Z,77.09
2018-02-16T08:07:59.981Z,77.85
2018-02-16T08:10:28.258Z,77.27
2018-02-16T08:12:56.523Z,76.92
2018-02-16T08:15:25.564Z,77.11
2018-02-16T08:17:53.826Z,77.02
2018-02-16T08:20:22.104Z,77.82
2018-02-16T08:22:51.142Z,77.24
2018-02-16T08:25:19.420Z,77.21
2018-02-16T08:27:47.921Z,76.53
2018-02-16T08:30:16.187Z,76.71
2018-02-16T08:32:44.456Z,77.07
2018-02-16T08:35:13.495Z,76.22
2018-02-16T08:37:42.585Z,76.66
2018-02-16T08:40:10.864Z,77.11
2018-02-16T08:42:39.896Z,76.17
2018-02-16T08:45:08.178Z,75.80
2018-02-16T08:47:36.441Z,76.04
2018-02-16T08:50:05.489Z,75.61
2018-02-16T08:52:33.757Z,75.58
2018-02-16T08:55:02.041Z,76.92
2018-02-16T08:57:30.321Z,77.52
2018-02-16T08:59:58.647Z,78.16
2018-02-16T09:02:26.907Z,77.62
2018-02-16T09:04:55.195Z,76.87
2018-02-16T09:07:24.216Z,75.96
2018-02-16T09:09:52.494Z,75.74
2018-02-16T09:12:21.421Z,75.48
2018-02-16T09:14:49.692Z,76.00
2018-02-16T09:17:17.952Z,74.87
2018-02-16T09:19:46.245Z,74.72
2018-02-16T09:22:15.272Z,74.64
2018-02-16T09:24:43.536Z,75.43
2018-02-16T09:27:11.857Z,75.13
2018-02-16T09:29:40.127Z,75.02
2018-02-16T09:32:09.156Z,74.47
2018-02-16T09:34:37.415Z,74.48
2018-02-16T09:37:06.454Z,74.78
2018-02-16T09:39:43.103Z,76.10
2018-02-16T09:42:12.153Z,77.03
2018-02-16T09:44:43.356Z,76.65
2018-02-16T09:47:11.640Z,76.05
2018-02-16T09:49:39.909Z,77.05
2018-02-16T09:52:08.180Z,76.86
2018-02-16T09:54:36.461Z,78.01
2018-02-16T09:57:04.744Z,78.69
2018-02-16T09:59:33.004Z,78.42
2018-02-16T10:02:01.283Z,77.53
2018-02-16T10:04:30.310Z,77.49
2018-02-16T10:06:58.610Z,78.15
2018-02-16T10:09:26.877Z,79.62
2018-02-16T10:11:55.997Z,78.34
2018-02-16T10:14:24.313Z,78.89
2018-02-16T10:16:53.306Z,77.75
2018-02-16T10:19:21.587Z,79.17
2018-02-16T10:21:49.868Z,79.59
2018-02-16T10:24:18.127Z,80.08
2018-02-16T10:26:46.396Z,78.29
2018-02-16T10:29:14.662Z,77.55
2018-02-16T10:31:42.929Z,77.85
2018-02-16T10:34:11.193Z,76.98
2018-02-16T10:36:40.238Z,76.41
2018-02-16T10:39:08.505Z,75.85
2018-02-16T10:41:36.785Z,75.18
2018-02-16T10:44:05.816Z,75.41
2018-02-16T10:46:34.096Z,76.71
2018-02-16T10:49:02.380Z,77.28
2018-02-16T10:51:30.656Z,76.86
2018-02-16T10:53:59.675Z,77.03
2018-02-16T10:56:27.950Z,78.61
2018-02-16T10:58:56.215Z,78.68
2018-02-16T11:01:24.508Z,79.85
2018-02-16T11:03:58.180Z,79.78
2018-02-16T11:06:32.085Z,80.61
2018-02-16T11:09:05.912Z,79.70
2018-02-16T11:11:34.190Z,78.88
2018-02-16T11:14:02.460Z,79.91
2018-02-16T11:16:30.736Z,79.93
2018-02-16T11:19:00.461Z,79.65
2018-02-16T11:21:29.504Z,78.30
2018-02-16T11:23:57.778Z,76.81
2018-02-16T11:26:26.687Z,76.56
2018-02-16T11:28:54.967Z,75.36
2018-02-16T11:31:23.300Z,73.96
2018-02-16T11:33:51.566Z,75.03
2018-02-16T11:36:19.840Z,74.18
2018-02-16T11:38:48.105Z,74.60
2018-02-16T11:41:17.148Z,75.19
2018-02-16T11:43:45.419Z,74.77
2018-02-16T11:46:13.719Z,73.18
2018-02-16T11:48:41.981Z,72.85
2018-02-16T11:51:11.029Z,74.14
2018-02-16T11:53:39.292Z,73.83
2018-02-16T11:56:07.583Z,73.96
2018-02-16T11:58:35.847Z,73.61
2018-02-16T12:01:04.892Z,73.44
2018-02-16T12:03:33.156Z,74.86
2018-02-16T12:06:01.432Z,74.97
2018-02-16T12:08:30.478Z,73.85
2018-02-16T12:10:58.750Z,72.15
2018-02-16T12:13:27.009Z,71.56
2018-02-16T12:15:55.300Z,70.68
2018-02-16T12:18:23.554Z,69.72
2018-02-16T12:20:51.828Z,69.66
2018-02-16T12:23:20.104Z,67.88
2018-02-16T12:25:48.365Z,66.58
2018-02-16T12:28:17.391Z,65.94
2018-02-16T12:30:45.666Z,66.55
2018-02-16T12:33:13.932Z,66.81
2018-02-16T12:35:42.205Z,65.23
2018-02-16T12:38:10.467Z,68.83
2018-02-16T12:40:38.731Z,71.18
2018-02-16T12:43:07.009Z,70.87
2018-02-16T12:45:35.271Z,69.21
2018-02-16T12:48:03.576Z,67.77
2018-02-16T12:50:31.803Z,71.21
2018-02-16T12:53:00.086Z,73.40
2018-02-16T12:55:28.356Z,74.00
2018-02-16T12:57:56.629Z,73.95
2018-02-16T13:00:25.663Z,72.93
2018-02-16T13:02:54.764Z,73.61
2018-02-16T13:05:23.029Z,73.93
2018-02-16T13:07:52.063Z,75.14
2018-02-16T13:10:20.324Z,73.07
2018-02-16T13:12:49.366Z,71.65
2018-02-16T13:15:17.615Z,69.75
2018-02-16T13:17:46.647Z,68.03
2018-02-16T13:20:14.903Z,66.84
2018-02-16T13:22:43.945Z,68.31
2018-02-16T13:25:12.208Z,66.82
2018-02-16T13:27:41.236Z,67.38
2018-02-16T13:30:09.496Z,67.86
2018-02-16T13:32:38.536Z,66.41
2018-02-16T13:35:06.791Z,65.26
2018-02-16T13:37:35.829Z,64.21
2018-02-16T13:40:04.600Z,64.78
2018-02-16T13:42:33.636Z,63.81
2018-02-16T13:45:01.910Z,64.40
2018-02-16T13:47:30.181Z,65.64
2018-02-16T13:49:59.237Z,65.33
2018-02-16T13:52:27.479Z,65.01
2018-02-16T13:54:56.502Z,63.98
2018-02-16T13:57:24.759Z,64.79
2018-02-16T13:59:53.028Z,65.96
2018-02-16T14:02:22.283Z,68.98
2018-02-16T14:04:50.559Z,69.93
2018-02-16T14:07:19.596Z,68.78
2018-02-16T14:09:47.857Z,67.88
2018-02-16T14:12:16.901Z,67.41
2018-02-16T14:14:45.170Z,66.51
2018-02-16T14:17:13.437Z,68.15
2018-02-16T14:19:42.470Z,68.34
2018-02-16T14:22:10.753Z,69.20
2018-02-16T14:24:39.034Z,68.15
2018-02-16T14:27:07.317Z,67.81
2018-02-16T14:29:35.584Z,65.88
2018-02-16T14:32:03.867Z,65.73
2018-02-16T14:34:32.137Z,63.93
2018-02-16T14:37:00.408Z,63.50
2018-02-16T14:39:28.685Z,61.81
2018-02-16T14:42:06.845Z,61.17
2018-02-16T14:44:35.113Z,60.80
2018-02-16T14:47:03.393Z,61.47
2018-02-16T14:49:31.662Z,60.18
2018-02-16T14:51:59.928Z,60.31
2018-02-16T14:54:28.951Z,62.84
2018-02-16T14:56:57.224Z,62.69
2018-02-16T14:59:26.244Z,59.86
2018-02-16T15:01:54.532Z,60.65
2018-02-16T15:04:23.035Z,61.13
2018-02-16T15:06:51.316Z,60.85
2018-02-16T15:09:19.777Z,61.48
2018-02-16T15:11:48.037Z,63.77
2018-02-16T15:14:16.308Z,63.31
2018-02-16T15:16:44.572Z,63.55
2018-02-16T15:19:13.609Z,62.33
2018-02-16T15:21:41.874Z,63.50
2018-02-16T15:24:10.172Z,63.07
2018-02-16T15:26:38.426Z,63.43
2018-02-16T15:29:07.460Z,65.63
2018-02-16T15:31:35.733Z,65.32
2018-02-16T15:34:04.019Z,64.20
2018-02-16T15:36:32.279Z,62.94
2018-02-16T15:39:00.549Z,62.78
2018-02-16T15:41:28.895Z,64.83
2018-02-16T15:43:57.155Z,64.22
2018-02-16T15:46:25.421Z,62.75
2018-02-16T15:48:53.689Z,63.43
2018-02-16T15:51:21.954Z,64.17
2018-02-16T15:53:50.225Z,63.55
2018-02-16T15:56:19.257Z,64.04
2018-02-16T15:58:47.525Z,62.70
2018-02-16T16:01:15.788Z,62.12
2018-02-16T16:03:44.824Z,64.10
2018-02-16T16:06:13.150Z,63.49
2018-02-16T16:08:42.136Z,63.76
2018-02-16T16:11:10.392Z,64.11
2018-02-16T16:13:39.449Z,64.75
2018-02-16T16:16:07.714Z,64.43
2018-02-16T16:18:35.993Z,64.63
2018-02-16T16:21:04.272Z,64.42
2018-02-16T16:23:32.553Z,64.48
2018-02-16T16:26:01.585Z,64.34
2018-02-16T16:28:31.812Z,63.84
2018-02-16T16:31:00.086Z,63.17
2018-02-16T16:33:29.137Z,62.75
2018-02-16T16:35:57.405Z,61.88
2018-02-16T16:38:25.685Z,61.34
2018-02-16T16:40:53.966Z,61.58
2018-02-16T16:43:22.237Z,61.68
2018-02-16T16:45:51.271Z,61.31
2018-02-16T16:48:19.534Z,61.73
2018-02-16T16:50:48.557Z,61.50
2018-02-16T16:53:16.819Z,61.71
2018-02-16T16:55:45.851Z,61.91
2018-02-16T16:58:14.129Z,62.87
2018-02-16T17:00:42.392Z,62.79
2018-02-16T17:03:10.660Z,62.99
2018-02-16T17:05:38.934Z,63.17
2018-02-16T17:08:07.208Z,63.27
2018-02-16T17:10:35.460Z,63.20
2018-02-16T17:13:04.555Z,63.44
2018-02-16T17:15:32.785Z,63.39
2018-02-16T17:18:01.072Z,63.74
2018-02-16T17:20:29.327Z,63.85
2018-02-16T17:22:58.364Z,63.79
2018-02-16T17:25:27.355Z,63.75
2018-02-16T17:27:56.397Z,64.78
2018-02-16T17:30:24.660Z,64.77
2018-02-16T17:32:52.954Z,64.29
2018-02-16T17:35:21.215Z,63.68
2018-02-16T17:37:50.254Z,63.20
2018-02-16T17:40:18.536Z,62.90
2018-02-16T17:42:47.589Z,62.75
2018-02-16T17:45:16.402Z,62.64
2018-02-16T17:47:44.667Z,62.58
2018-02-16T17:50:22.853Z,62.16
2018-02-16T17:52:51.135Z,62.70
2018-02-16T17:55:19.409Z,62.60
2018-02-16T17:57:48.449Z,62.58
2018-02-16T18:00:16.718Z,62.70
2018-02-16T18:02:44.993Z,62.48
2018-02-16T18:05:14.024Z,62.31
2018-02-16T18:07:42.303Z,62.25
2018-02-16T18:10:10.569Z,62.19
2018-02-16T18:12:39.605Z,62.14
2018-02-16T18:15:07.892Z,61.71
2018-02-16T18:17:36.152Z,61.53
2018-02-16T18:20:05.220Z,61.57
2018-02-16T18:22:33.489Z,61.40
2018-02-16T18:25:01.778Z,61.52
2018-02-16T18:27:30.057Z,61.82
2018-02-16T18:29:58.323Z,61.59
2018-02-16T18:32:26.613Z,61.37
2018-02-16T18:34:54.878Z,61.38
2018-02-16T18:37:23.137Z,61.11
2018-02-16T18:39:51.413Z,60.99
2018-02-16T18:42:19.675Z,60.77
2018-02-16T18:44:47.961Z,60.69
2018-02-16T18:47:16.233Z,60.76
2018-02-16T18:49:45.283Z,61.05
2018-02-16T18:52:13.540Z,61.22
2018-02-16T18:54:41.808Z,61.13
2018-02-16T18:57:10.837Z,61.25
2018-02-16T18:59:39.867Z,61.47
2018-02-16T19:02:08.143Z,61.52
2018-02-16T19:04:36.428Z,61.22
2018-02-16T19:07:05.541Z,61.24
2018-02-16T19:09:33.821Z,61.40
2018-02-16T19:12:02.102Z,61.53
2018-02-16T19:14:31.151Z,61.45
2018-02-16T19:16:59.462Z,61.14
2018-02-16T19:19:27.695Z,61.49
2018-02-16T19:21:55.969Z,61.37
2018-02-16T19:24:25.137Z,61.60
2018-02-16T19:26:53.545Z,61.63
2018-02-16T19:29:22.700Z,61.76
2018-02-16T19:31:51.129Z,61.84
2018-02-16T19:34:19.902Z,62.03
2018-02-16T19:36:48.265Z,61.79
2018-02-16T19:39:17.785Z,61.72
2018-02-16T19:41:46.505Z,61.63
2018-02-16T19:44:14.857Z,61.50
2018-02-16T19:46:43.682Z,61.53
2018-02-16T19:49:13.305Z,61.94
2018-02-16T19:51:42.412Z,62.02
2018-02-16T19:54:10.702Z,61.87
2018-02-16T19:56:38.981Z,61.75
2018-02-16T19:59:08.026Z,61.47
2018-02-16T20:01:36.287Z,61.28
2018-02-16T20:04:04.589Z,61.07
2018-02-16T20:06:32.848Z,61.36
2018-02-16T20:09:01.897Z,60.88
2018-02-16T20:11:31.079Z,61.72
2018-02-16T20:13:59.654Z,61.69
2018-02-16T20:16:27.977Z,62.03
2018-02-16T20:18:56.253Z,62.27
2018-02-16T20:21:24.816Z,63.31
2018-02-16T20:23:54.056Z,63.17
2018-02-16T20:26:22.332Z,62.57
2018-02-16T20:28:50.617Z,62.18
2018-02-16T20:31:19.861Z,62.49
2018-02-16T20:33:48.177Z,62.24
2018-02-16T20:36:16.461Z,61.80
2018-02-16T20:38:44.752Z,61.41
2018-02-16T20:41:13.322Z,61.14
2018-02-16T20:43:41.660Z,61.48
2018-02-16T20:46:09.940Z,61.36
2018-02-16T20:48:38.364Z,60.26
2018-02-16T20:51:06.662Z,59.64
2018-02-16T20:53:35.014Z,60.00
2018-02-16T20:56:04.082Z,60.02
2018-02-16T20:58:32.352Z,60.33
2018-02-16T21:01:00.638Z,60.79
2018-02-16T21:03:28.988Z,61.21
2018-02-16T21:05:57.278Z,61.25
2018-02-16T21:08:25.600Z,60.82
2018-02-16T21:10:53.879Z,61.15
2018-02-16T21:13:22.908Z,61.24
2018-02-16T21:15:51.189Z,60.92
2018-02-16T21:18:19.466Z,60.47
2018-02-16T21:20:48.508Z,61.01
2018-02-16T21:23:17.535Z,61.64
2018-02-16T21:25:45.815Z,61.50
2018-02-16T21:28:14.079Z,61.76
2018-02-16T21:30:42.395Z,62.38
2018-02-16T21:33:10.664Z,63.12
2018-02-16T21:35:38.934Z,63.07
2018-02-16T21:38:07.201Z,63.91
2018-02-16T21:40:36.836Z,64.38
2018-02-16T21:43:05.108Z,64.28
2018-02-16T21:45:34.152Z,63.41
2018-02-16T21:48:02.430Z,62.54
2018-02-16T21:50:30.695Z,62.13
2018-02-16T21:52:59.737Z,62.19
2018-02-16T21:55:28.007Z,61.85
2018-02-16T21:57:56.277Z,62.53
2018-02-16T22:00:26.228Z,61.97
2018-02-16T22:02:54.501Z,61.81
2018-02-16T22:05:23.544Z,61.31
2018-02-16T22:07:51.812Z,60.98
2018-02-16T22:10:20.080Z,61.27
2018-02-16T22:12:49.105Z,61.20
2018-02-16T22:15:17.376Z,61.32
2018-02-16T22:17:46.413Z,60.59
2018-02-16T22:20:14.682Z,59.96
2018-02-16T22:22:42.951Z,60.28
2018-02-16T22:25:12.036Z,59.79
2018-02-16T22:27:40.255Z,60.11
2018-02-16T22:30:09.291Z,60.54
2018-02-16T22:32:37.555Z,60.61
2018-02-16T22:35:05.836Z,59.65
2018-02-16T22:37:34.864Z,59.98
2018-02-16T22:40:03.153Z,60.39
2018-02-16T22:42:31.415Z,60.41
2018-02-16T22:45:00.461Z,59.84
2018-02-16T22:47:28.727Z,59.41
2018-02-16T22:49:56.992Z,60.03
2018-02-16T22:52:27.958Z,60.10
2018-02-16T22:54:56.241Z,60.77
2018-02-16T22:57:25.276Z,61.04
2018-02-16T22:59:53.557Z,61.19
2018-02-16T23:02:21.824Z,60.86
2018-02-16T23:04:50.864Z,59.96
2018-02-16T23:07:19.144Z,60.45
2018-02-16T23:09:48.225Z,61.54
2018-02-16T23:12:17.257Z,62.88
2018-02-16T23:14:45.550Z,61.55
2018-02-16T23:17:13.803Z,61.66
2018-02-16T23:19:42.833Z,62.44
2018-02-16T23:22:11.095Z,61.98
2018-02-16T23:24:40.140Z,61.82
2018-02-16T23:27:08.401Z,61.88
2018-02-16T23:29:37.441Z,62.35
2018-02-16T23:32:05.712Z,62.83
2018-02-16T23:34:33.987Z,62.41
2018-02-16T23:37:03.017Z,63.07
2018-02-16T23:39:31.301Z,63.16
2018-02-16T23:41:59.568Z,62.53
2018-02-16T23:44:28.546Z,62.69
2018-02-16T23:46:56.829Z,62.18
2018-02-16T23:49:25.105Z,61.09
2018-02-16T23:51:54.146Z,60.46
2018-02-16T23:54:22.406Z,59.98
2018-02-16T23:56:50.692Z,60.96
2018-02-16T23:59:19.715Z,60.89
